sensor_id;sensor_type;location;lat;lon;timestamp;pressure;altitude;pressure_sealevel;temperature;humidity
17209;BME280;8720;48.488;9.202;2023-05-14T00:00:49;96998.69;;;16.96;59.15
17209;BME280;8720;48.488;9.202;2023-05-14T00:03:16;96998.03;;;16.91;59.24
17209;BME280;8720;48.488;9.202;2023-05-14T00:05:43;96992.75;;;16.91;59.18
17209;BME280;8720;48.488;9.202;2023-05-14T00:08:11;96997.31;;;16.88;59.27
17209;BME280;8720;48.488;9.202;2023-05-14T00:10:39;96987.75;;;16.85;59.80
17209;BME280;8720;48.488;9.202;2023-05-14T00:13:07;96990.56;;;16.82;59.50
17209;BME280;8720;48.488;9.202;2023-05-14T00:15:34;96985.44;;;16.79;59.44
17209;BME280;8720;48.488;9.202;2023-05-14T00:18:01;96982.00;;;16.77;59.39
17209;BME280;8720;48.488;9.202;2023-05-14T00:20:29;96982.94;;;16.76;59.85
17209;BME280;8720;48.488;9.202;2023-05-14T00:22:56;96981.22;;;16.75;59.73
17209;BME280;8720;48.488;9.202;2023-05-14T00:25:24;96988.28;;;16.75;59.77
17209;BME280;8720;48.488;9.202;2023-05-14T00:27:52;96976.16;;;16.71;59.63
17209;BME280;8720;48.488;9.202;2023-05-14T00:30:20;96967.53;;;16.67;59.62
17209;BME280;8720;48.488;9.202;2023-05-14T00:32:47;96964.59;;;16.73;59.92
17209;BME280;8720;48.488;9.202;2023-05-14T00:35:14;96968.06;;;16.74;59.84
17209;BME280;8720;48.488;9.202;2023-05-14T00:37:42;96964.59;;;16.73;59.72
17209;BME280;8720;48.488;9.202;2023-05-14T00:40:10;96945.72;;;16.64;60.05
17209;BME280;8720;48.488;9.202;2023-05-14T00:42:38;96945.41;;;16.70;59.82
17209;BME280;8720;48.488;9.202;2023-05-14T00:45:08;96954.94;;;16.72;60.16
17209;BME280;8720;48.488;9.202;2023-05-14T00:47:36;96954.94;;;16.72;60.05
17209;BME280;8720;48.488;9.202;2023-05-14T00:50:06;96954.94;;;16.72;59.93
17209;BME280;8720;48.488;9.202;2023-05-14T00:52:35;96945.72;;;16.64;59.84
17209;BME280;8720;48.488;9.202;2023-05-14T00:55:06;96958.63;;;16.70;59.94
17209;BME280;8720;48.488;9.202;2023-05-14T00:57:34;96948.97;;;16.69;60.09
17209;BME280;8720;48.488;9.202;2023-05-14T01:00:03;96941.03;;;16.69;60.34
17209;BME280;8720;48.488;9.202;2023-05-14T01:02:32;96943.69;;;16.69;59.90
17209;BME280;8720;48.488;9.202;2023-05-14T01:05:00;96944.63;;;16.68;59.82
17209;BME280;8720;48.488;9.202;2023-05-14T01:07:38;96946.31;;;16.69;59.88
17209;BME280;8720;48.488;9.202;2023-05-14T01:10:16;96943.75;;;16.67;60.12
17209;BME280;8720;48.488;9.202;2023-05-14T01:12:56;96935.84;;;16.67;59.87
17209;BME280;8720;48.488;9.202;2023-05-14T01:15:30;96913.81;;;16.50;60.11
17209;BME280;8720;48.488;9.202;2023-05-14T01:18:02;96928.13;;;16.63;60.15
17209;BME280;8720;48.488;9.202;2023-05-14T01:20:30;96931.47;;;16.66;60.42
17209;BME280;8720;48.488;9.202;2023-05-14T01:22:59;96931.47;;;16.66;60.52
17209;BME280;8720;48.488;9.202;2023-05-14T01:25:26;96933.28;;;16.66;60.34
17209;BME280;8720;48.488;9.202;2023-05-14T01:28:01;96927.22;;;16.64;60.17
17209;BME280;8720;48.488;9.202;2023-05-14T01:30:35;96931.72;;;16.62;60.34
17209;BME280;8720;48.488;9.202;2023-05-14T01:33:06;96927.44;;;16.59;60.26
17209;BME280;8720;48.488;9.202;2023-05-14T01:35:36;96932.78;;;16.58;60.14
17209;BME280;8720;48.488;9.202;2023-05-14T01:38:09;96931.06;;;16.57;60.23
17209;BME280;8720;48.488;9.202;2023-05-14T01:40:38;96934.72;;;16.54;60.01
17209;BME280;8720;48.488;9.202;2023-05-14T01:43:05;96928.59;;;16.54;60.12
17209;BME280;8720;48.488;9.202;2023-05-14T01:45:36;96930.44;;;16.52;59.87
17209;BME280;8720;48.488;9.202;2023-05-14T01:48:04;96934.09;;;16.49;60.02
17209;BME280;8720;48.488;9.202;2023-05-14T01:50:31;96928.84;;;16.48;59.82
17209;BME280;8720;48.488;9.202;2023-05-14T01:52:58;96935.13;;;16.45;59.83
17209;BME280;8720;48.488;9.202;2023-05-14T01:55:28;96930.72;;;16.46;59.90
17209;BME280;8720;48.488;9.202;2023-05-14T01:57:55;96934.28;;;16.45;60.17
17209;BME280;8720;48.488;9.202;2023-05-14T02:02:58;96921.22;;;16.42;60.05
17209;BME280;8720;48.488;9.202;2023-05-14T02:05:25;96926.75;;;16.37;60.17
17209;BME280;8720;48.488;9.202;2023-05-14T02:07:53;96931.00;;;16.39;60.26
17209;BME280;8720;48.488;9.202;2023-05-14T02:10:21;96924.03;;;16.38;60.04
17209;BME280;8720;48.488;9.202;2023-05-14T02:12:53;96925.63;;;16.41;60.28
17209;BME280;8720;48.488;9.202;2023-05-14T02:15:20;96924.81;;;16.41;60.55
17209;BME280;8720;48.488;9.202;2023-05-14T02:17:48;96927.38;;;16.42;60.21
17209;BME280;8720;48.488;9.202;2023-05-14T02:20:15;96931.78;;;16.42;60.10
17209;BME280;8720;48.488;9.202;2023-05-14T02:22:42;96944.00;;;16.44;60.64
17209;BME280;8720;48.488;9.202;2023-05-14T02:25:11;96933.44;;;16.44;60.56
17209;BME280;8720;48.488;9.202;2023-05-14T02:27:38;96932.56;;;16.44;60.61
17209;BME280;8720;48.488;9.202;2023-05-14T02:30:09;96935.13;;;16.45;60.49
17209;BME280;8720;48.488;9.202;2023-05-14T02:32:38;96931.56;;;16.46;60.63
17209;BME280;8720;48.488;9.202;2023-05-14T02:35:06;96932.44;;;16.47;60.71
17209;BME280;8720;48.488;9.202;2023-05-14T02:37:34;96935.03;;;16.48;60.39
17209;BME280;8720;48.488;9.202;2023-05-14T02:40:01;96926.16;;;16.49;60.65
17209;BME280;8720;48.488;9.202;2023-05-14T02:42:29;96925.16;;;16.52;60.38
17209;BME280;8720;48.488;9.202;2023-05-14T02:44:56;96932.16;;;16.53;60.78
17209;BME280;8720;48.488;9.202;2023-05-14T02:47:25;96929.44;;;16.54;60.41
17209;BME280;8720;48.488;9.202;2023-05-14T02:49:52;96924.94;;;16.56;60.60
17209;BME280;8720;48.488;9.202;2023-05-14T02:52:19;96931.03;;;16.58;60.78
17209;BME280;8720;48.488;9.202;2023-05-14T02:54:46;96925.66;;;16.60;60.51
17209;BME280;8720;48.488;9.202;2023-05-14T02:57:14;96931.72;;;16.62;60.46
17209;BME280;8720;48.488;9.202;2023-05-14T02:59:41;96935.13;;;16.64;60.60
17209;BME280;8720;48.488;9.202;2023-05-14T03:02:08;96932.50;;;16.64;60.55
17209;BME280;8720;48.488;9.202;2023-05-14T03:04:39;96934.09;;;16.66;60.62
17209;BME280;8720;48.488;9.202;2023-05-14T03:07:06;96933.13;;;16.69;60.43
17209;BME280;8720;48.488;9.202;2023-05-14T03:09:34;96933.03;;;16.70;60.33
17209;BME280;8720;48.488;9.202;2023-05-14T03:12:01;96931.09;;;16.74;60.61
17209;BME280;8720;48.488;9.202;2023-05-14T03:14:28;96933.69;;;16.75;60.42
17209;BME280;8720;48.488;9.202;2023-05-14T03:16:55;96930.09;;;16.76;60.55
17209;BME280;8720;48.488;9.202;2023-05-14T03:19:23;96925.59;;;16.78;60.30
17209;BME280;8720;48.488;9.202;2023-05-14T03:21:52;96929.09;;;16.79;60.62
17209;BME280;8720;48.488;9.202;2023-05-14T03:24:19;96924.66;;;16.79;60.70
17209;BME280;8720;48.488;9.202;2023-05-14T03:26:46;96923.81;;;16.79;60.57
17209;BME280;8720;48.488;9.202;2023-05-14T03:29:13;96925.44;;;16.81;60.78
17209;BME280;8720;48.488;9.202;2023-05-14T03:31:43;96926.28;;;16.82;60.67
17209;BME280;8720;48.488;9.202;2023-05-14T03:34:10;96927.94;;;16.84;60.43
17209;BME280;8720;48.488;9.202;2023-05-14T03:36:37;96928.78;;;16.85;60.65
17209;BME280;8720;48.488;9.202;2023-05-14T03:39:06;96926.06;;;16.86;60.87
17209;BME280;8720;48.488;9.202;2023-05-14T03:41:35;96926.06;;;16.86;60.71
17209;BME280;8720;48.488;9.202;2023-05-14T03:44:02;96914.63;;;16.86;60.59
17209;BME280;8720;48.488;9.202;2023-05-14T03:46:31;96921.69;;;16.85;60.86
17209;BME280;8720;48.488;9.202;2023-05-14T03:48:58;96922.63;;;16.84;60.54
17209;BME280;8720;48.488;9.202;2023-05-14T03:51:26;96920.09;;;16.83;60.67
17209;BME280;8720;48.488;9.202;2023-05-14T03:53:53;96919.22;;;16.82;60.64
17209;BME280;8720;48.488;9.202;2023-05-14T03:56:22;96924.59;;;16.81;60.75
17209;BME280;8720;48.488;9.202;2023-05-14T03:58:49;96925.59;;;16.78;60.45
17209;BME280;8720;48.488;9.202;2023-05-14T04:01:17;96925.75;;;16.75;60.84
17209;BME280;8720;48.488;9.202;2023-05-14T04:03:44;96928.41;;;16.75;60.51
17209;BME280;8720;48.488;9.202;2023-05-14T04:06:12;96914.72;;;16.67;60.56
17209;BME280;8720;48.488;9.202;2023-05-14T04:08:42;96927.63;;;16.73;60.54
17209;BME280;8720;48.488;9.202;2023-05-14T04:11:10;96923.31;;;16.71;60.42
17209;BME280;8720;48.488;9.202;2023-05-14T04:13:38;96928.53;;;16.72;60.64
17209;BME280;8720;48.488;9.202;2023-05-14T04:16:06;96923.25;;;16.72;60.63
17209;BME280;8720;48.488;9.202;2023-05-14T04:18:34;96918.81;;;16.73;60.65
17209;BME280;8720;48.488;9.202;2023-05-14T04:21:01;96920.53;;;16.74;60.53
17209;BME280;8720;48.488;9.202;2023-05-14T04:23:29;96916.97;;;16.75;60.93
17209;BME280;8720;48.488;9.202;2023-05-14T04:25:57;96919.59;;;16.75;60.87
17209;BME280;8720;48.488;9.202;2023-05-14T04:28:24;96923.13;;;16.75;60.85
17209;BME280;8720;48.488;9.202;2023-05-14T04:30:53;96916.88;;;16.76;60.67
17209;BME280;8720;48.488;9.202;2023-05-14T04:33:20;96916.78;;;16.78;60.87
17209;BME280;8720;48.488;9.202;2023-05-14T04:35:47;96918.53;;;16.79;60.78
17209;BME280;8720;48.488;9.202;2023-05-14T04:38:14;96924.50;;;16.82;60.95
17209;BME280;8720;48.488;9.202;2023-05-14T04:40:42;96897.91;;;16.68;60.88
17209;BME280;8720;48.488;9.202;2023-05-14T04:43:09;96917.44;;;16.83;60.95
17209;BME280;8720;48.488;9.202;2023-05-14T04:45:36;96917.34;;;16.84;60.79
17209;BME280;8720;48.488;9.202;2023-05-14T04:48:07;96915.56;;;16.85;60.91
17209;BME280;8720;48.488;9.202;2023-05-14T04:50:34;96918.13;;;16.86;60.65
17209;BME280;8720;48.488;9.202;2023-05-14T04:53:01;96917.19;;;16.87;60.88
17209;BME280;8720;48.488;9.202;2023-05-14T04:55:29;96919.78;;;16.89;60.87
17209;BME280;8720;48.488;9.202;2023-05-14T04:57:56;96925.91;;;16.89;60.78
17209;BME280;8720;48.488;9.202;2023-05-14T05:00:23;96917.13;;;16.89;61.08
17209;BME280;8720;48.488;9.202;2023-05-14T05:02:51;96925.91;;;16.89;60.77
17209;BME280;8720;48.488;9.202;2023-05-14T05:05:20;96920.56;;;16.91;60.90
17209;BME280;8720;48.488;9.202;2023-05-14T05:07:47;96911.84;;;16.89;60.66
17209;BME280;8720;48.488;9.202;2023-05-14T05:10:14;96921.63;;;16.87;60.76
17209;BME280;8720;48.488;9.202;2023-05-14T05:12:41;96913.78;;;16.85;60.71
17209;BME280;8720;48.488;9.202;2023-05-14T05:15:09;96922.56;;;16.86;60.68
17209;BME280;8720;48.488;9.202;2023-05-14T05:17:36;96921.78;;;16.84;60.81
17209;BME280;8720;48.488;9.202;2023-05-14T05:20:05;96923.63;;;16.82;61.00
17209;BME280;8720;48.488;9.202;2023-05-14T05:22:36;96919.38;;;16.79;61.09
17209;BME280;8720;48.488;9.202;2023-05-14T05:25:04;96922.84;;;16.80;61.17
17209;BME280;8720;48.488;9.202;2023-05-14T05:27:33;96914.03;;;16.81;61.06
17209;BME280;8720;48.488;9.202;2023-05-14T05:30:00;96930.75;;;16.81;60.85
17209;BME280;8720;48.488;9.202;2023-05-14T05:32:29;96928.88;;;16.83;60.83
17209;BME280;8720;48.488;9.202;2023-05-14T05:34:56;96920.88;;;16.85;60.94
17209;BME280;8720;48.488;9.202;2023-05-14T05:37:23;96926.97;;;16.85;60.96
17209;BME280;8720;48.488;9.202;2023-05-14T05:39:52;96925.19;;;16.86;61.11
17209;BME280;8720;48.488;9.202;2023-05-14T05:42:19;96918.34;;;16.82;60.84
17209;BME280;8720;48.488;9.202;2023-05-14T05:44:47;96916.00;;;16.76;61.02
17209;BME280;8720;48.488;9.202;2023-05-14T05:47:14;96917.19;;;16.70;61.03
17209;BME280;8720;48.488;9.202;2023-05-14T05:49:42;96914.63;;;16.69;61.37
17209;BME280;8720;48.488;9.202;2023-05-14T05:52:09;96915.78;;;16.63;61.52
17209;BME280;8720;48.488;9.202;2023-05-14T05:54:36;96914.31;;;16.58;61.75
17209;BME280;8720;48.488;9.202;2023-05-14T05:57:06;96915.47;;;16.52;61.56
17209;BME280;8720;48.488;9.202;2023-05-14T05:59:33;96914.88;;;16.46;62.04
17209;BME280;8720;48.488;9.202;2023-05-14T06:02:01;96912.31;;;16.44;62.21
17209;BME280;8720;48.488;9.202;2023-05-14T06:04:28;96912.22;;;16.46;62.39
17209;BME280;8720;48.488;9.202;2023-05-14T06:06:55;96909.47;;;16.49;62.48
17209;BME280;8720;48.488;9.202;2023-05-14T06:09:22;96912.13;;;16.49;62.78
17209;BME280;8720;48.488;9.202;2023-05-14T06:11:50;96920.06;;;16.49;62.47
17209;BME280;8720;48.488;9.202;2023-05-14T06:14:18;96915.66;;;16.48;62.74
17209;BME280;8720;48.488;9.202;2023-05-14T06:16:45;96917.31;;;16.50;62.82
17209;BME280;8720;48.488;9.202;2023-05-14T06:19:13;96923.53;;;16.49;62.63
17209;BME280;8720;48.488;9.202;2023-05-14T06:21:40;96921.88;;;16.47;62.49
17209;BME280;8720;48.488;9.202;2023-05-14T06:24:08;96915.94;;;16.42;62.40
17209;BME280;8720;48.488;9.202;2023-05-14T06:26:35;96923.16;;;16.38;62.51
17209;BME280;8720;48.488;9.202;2023-05-14T06:29:02;96923.38;;;16.33;62.63
17209;BME280;8720;48.488;9.202;2023-05-14T06:31:31;96917.31;;;16.31;63.12
17209;BME280;8720;48.488;9.202;2023-05-14T06:33:58;96919.13;;;16.31;63.10
17209;BME280;8720;48.488;9.202;2023-05-14T06:36:25;96929.59;;;16.32;63.01
17209;BME280;8720;48.488;9.202;2023-05-14T06:38:53;96927.75;;;16.34;63.18
17209;BME280;8720;48.488;9.202;2023-05-14T06:41:20;96919.75;;;16.36;63.20
17209;BME280;8720;48.488;9.202;2023-05-14T06:43:47;96930.31;;;16.36;62.88
17209;BME280;8720;48.488;9.202;2023-05-14T06:46:14;96925.03;;;16.36;62.89
17209;BME280;8720;48.488;9.202;2023-05-14T06:48:43;96930.22;;;16.37;63.09
17209;BME280;8720;48.488;9.202;2023-05-14T06:51:10;96933.56;;;16.41;63.10
17209;BME280;8720;48.488;9.202;2023-05-14T06:53:39;96925.50;;;16.44;63.37
17209;BME280;8720;48.488;9.202;2023-05-14T06:56:06;96930.63;;;16.49;63.29
17209;BME280;8720;48.488;9.202;2023-05-14T06:58:34;96922.59;;;16.50;62.96
17209;BME280;8720;48.488;9.202;2023-05-14T07:01:01;96921.59;;;16.53;63.07
17209;BME280;8720;48.488;9.202;2023-05-14T07:03:28;96922.38;;;16.55;62.97
17209;BME280;8720;48.488;9.202;2023-05-14T07:05:57;96921.28;;;16.59;63.06
17209;BME280;8720;48.488;9.202;2023-05-14T07:08:24;96921.16;;;16.62;63.03
17209;BME280;8720;48.488;9.202;2023-05-14T07:10:51;96924.41;;;16.67;62.89
17209;BME280;8720;48.488;9.202;2023-05-14T07:13:18;96926.84;;;16.71;62.98
17209;BME280;8720;48.488;9.202;2023-05-14T07:15:46;96923.94;;;16.76;62.90
17209;BME280;8720;48.488;9.202;2023-05-14T07:18:13;96924.72;;;16.78;63.06
17209;BME280;8720;48.488;9.202;2023-05-14T07:20:40;96922.09;;;16.78;63.02
17209;BME280;8720;48.488;9.202;2023-05-14T07:23:09;96928.22;;;16.78;62.89
17209;BME280;8720;48.488;9.202;2023-05-14T07:25:36;96922.09;;;16.78;62.50
17209;BME280;8720;48.488;9.202;2023-05-14T07:28:04;96922.16;;;16.76;62.64
17209;BME280;8720;48.488;9.202;2023-05-14T07:30:31;96918.53;;;16.79;62.62
17209;BME280;8720;48.488;9.202;2023-05-14T07:32:58;96921.78;;;16.84;62.90
17209;BME280;8720;48.488;9.202;2023-05-14T07:35:26;96919.06;;;16.85;62.76
17209;BME280;8720;48.488;9.202;2023-05-14T07:37:53;96910.22;;;16.86;62.46
17209;BME280;8720;48.488;9.202;2023-05-14T07:40:22;96916.19;;;16.90;62.74
17209;BME280;8720;48.488;9.202;2023-05-14T07:42:50;96908.91;;;16.95;62.99
17209;BME280;8720;48.488;9.202;2023-05-14T07:45:17;96912.16;;;17.00;62.78
17209;BME280;8720;48.488;9.202;2023-05-14T07:47:44;96908.25;;;17.07;62.85
17209;BME280;8720;48.488;9.202;2023-05-14T07:50:11;96908.63;;;17.16;63.18
17209;BME280;8720;48.488;9.202;2023-05-14T07:52:39;96906.38;;;17.26;62.79
17209;BME280;8720;48.488;9.202;2023-05-14T07:55:07;96907.00;;;17.31;62.63
17209;BME280;8720;48.488;9.202;2023-05-14T07:57:35;96910.25;;;17.36;62.27
17209;BME280;8720;48.488;9.202;2023-05-14T08:00:04;96908.28;;;17.40;62.52
17209;BME280;8720;48.488;9.202;2023-05-14T08:02:38;96905.25;;;17.47;62.45
17209;BME280;8720;48.488;9.202;2023-05-14T08:05:06;96901.28;;;17.56;62.38
17209;BME280;8720;48.488;9.202;2023-05-14T08:07:34;96896.28;;;17.67;62.23
17209;BME280;8720;48.488;9.202;2023-05-14T08:10:01;96903.56;;;17.79;62.15
17209;BME280;8720;48.488;9.202;2023-05-14T08:12:29;96903.72;;;17.91;61.79
17209;BME280;8720;48.488;9.202;2023-05-14T08:14:58;96900.50;;;18.02;61.45
17209;BME280;8720;48.488;9.202;2023-05-14T08:17:25;96900.94;;;18.10;61.40
17209;BME280;8720;48.488;9.202;2023-05-14T08:19:52;96902.06;;;18.22;61.43
17209;BME280;8720;48.488;9.202;2023-05-14T08:22:20;96896.13;;;18.32;61.05
17209;BME280;8720;48.488;9.202;2023-05-14T08:24:48;96903.53;;;18.43;60.92
17209;BME280;8720;48.488;9.202;2023-05-14T08:27:15;96902.22;;;18.50;60.62
17209;BME280;8720;48.488;9.202;2023-05-14T08:29:42;96903.75;;;18.54;60.28
17209;BME280;8720;48.488;9.202;2023-05-14T08:32:11;96897.53;;;18.55;60.24
17209;BME280;8720;48.488;9.202;2023-05-14T08:34:38;96900.00;;;18.58;60.63
17209;BME280;8720;48.488;9.202;2023-05-14T08:37:06;96896.13;;;18.63;60.25
17209;BME280;8720;48.488;9.202;2023-05-14T08:39:33;96899.97;;;18.73;60.01
17209;BME280;8720;48.488;9.202;2023-05-14T08:42:05;96895.84;;;18.83;60.09
17209;BME280;8720;48.488;9.202;2023-05-14T08:44:43;96897.84;;;18.94;60.09
17209;BME280;8720;48.488;9.202;2023-05-14T08:47:17;96897.22;;;19.04;60.19
17209;BME280;8720;48.488;9.202;2023-05-14T08:49:54;96898.19;;;19.18;60.17
17209;BME280;8720;48.488;9.202;2023-05-14T08:52:24;96894.81;;;19.30;59.95
17209;BME280;8720;48.488;9.202;2023-05-14T08:54:52;96895.91;;;19.41;59.65
17209;BME280;8720;48.488;9.202;2023-05-14T08:57:21;96895.84;;;19.57;59.22
17209;BME280;8720;48.488;9.202;2023-05-14T08:59:49;96902.19;;;19.68;58.84
17209;BME280;8720;48.488;9.202;2023-05-14T09:02:22;96895.53;;;19.75;58.54
17209;BME280;8720;48.488;9.202;2023-05-14T09:04:54;96893.63;;;19.77;58.23
17209;BME280;8720;48.488;9.202;2023-05-14T09:07:22;96896.03;;;19.82;58.02
17209;BME280;8720;48.488;9.202;2023-05-14T09:09:50;96890.31;;;19.88;58.21
17209;BME280;8720;48.488;9.202;2023-05-14T09:12:18;96886.13;;;19.98;58.13
17209;BME280;8720;48.488;9.202;2023-05-14T09:14:48;96889.91;;;20.08;57.70
17209;BME280;8720;48.488;9.202;2023-05-14T09:17:15;96878.69;;;20.17;57.39
17209;BME280;8720;48.488;9.202;2023-05-14T09:19:46;96878.97;;;20.27;57.09
17209;BME280;8720;48.488;9.202;2023-05-14T09:22:16;96878.50;;;20.34;57.13
17209;BME280;8720;48.488;9.202;2023-05-14T09:24:44;96885.41;;;20.37;56.60
17209;BME280;8720;48.488;9.202;2023-05-14T09:27:18;96882.00;;;20.35;56.93
17209;BME280;8720;48.488;9.202;2023-05-14T09:29:47;96876.03;;;20.31;56.71
17209;BME280;8720;48.488;9.202;2023-05-14T09:32:14;96873.59;;;20.28;56.03
17209;BME280;8720;48.488;9.202;2023-05-14T09:34:41;96871.09;;;20.25;56.06
17209;BME280;8720;48.488;9.202;2023-05-14T09:37:10;96873.00;;;20.23;56.20
17209;BME280;8720;48.488;9.202;2023-05-14T09:39:38;96868.56;;;20.24;56.74
17209;BME280;8720;48.488;9.202;2023-05-14T09:42:06;96866.00;;;20.22;56.22
17209;BME280;8720;48.488;9.202;2023-05-14T09:44:33;96864.28;;;20.21;56.14
17209;BME280;8720;48.488;9.202;2023-05-14T09:47:03;96870.25;;;20.25;56.12
17209;BME280;8720;48.488;9.202;2023-05-14T09:49:30;96868.91;;;20.32;56.07
17209;BME280;8720;48.488;9.202;2023-05-14T09:51:57;96864.78;;;20.40;55.95
17209;BME280;8720;48.488;9.202;2023-05-14T09:54:27;96861.00;;;20.44;56.03
17209;BME280;8720;48.488;9.202;2023-05-14T09:56:55;96864.28;;;20.48;55.35
17209;BME280;8720;48.488;9.202;2023-05-14T09:59:22;96857.81;;;20.52;55.96
17209;BME280;8720;48.488;9.202;2023-05-14T10:01:51;96860.84;;;20.60;55.54
17209;BME280;8720;48.488;9.202;2023-05-14T10:04:21;96859.91;;;20.61;55.23
17209;BME280;8720;48.488;9.202;2023-05-14T10:06:52;96852.31;;;20.55;55.13
17209;BME280;8720;48.488;9.202;2023-05-14T10:09:21;96850.59;;;20.54;55.49
17209;BME280;8720;48.488;9.202;2023-05-14T10:11:57;96847.94;;;20.54;55.26
17209;BME280;8720;48.488;9.202;2023-05-14T10:14:31;96849.66;;;20.55;55.68
17209;BME280;8720;48.488;9.202;2023-05-14T10:17:00;96854.59;;;20.61;55.29
17209;BME280;8720;48.488;9.202;2023-05-14T10:19:33;96854.72;;;20.72;55.41
17209;BME280;8720;48.488;9.202;2023-05-14T10:22:06;96844.31;;;20.81;55.52
17209;BME280;8720;48.488;9.202;2023-05-14T10:24:34;96839.84;;;20.95;55.30
17209;BME280;8720;48.488;9.202;2023-05-14T10:27:07;96838.22;;;21.06;54.66
17209;BME280;8720;48.488;9.202;2023-05-14T10:29:36;96842.69;;;21.18;54.60
17209;BME280;8720;48.488;9.202;2023-05-14T10:32:06;96836.53;;;21.30;53.87
17209;BME280;8720;48.488;9.202;2023-05-14T10:34:36;96839.06;;;21.44;54.28
17209;BME280;8720;48.488;9.202;2023-05-14T10:37:08;96834.81;;;21.54;54.12
17209;BME280;8720;48.488;9.202;2023-05-14T10:39:46;96832.34;;;21.64;53.83
17209;BME280;8720;48.488;9.202;2023-05-14T10:42:18;96834.47;;;21.71;53.39
17209;BME280;8720;48.488;9.202;2023-05-14T10:44:52;96823.72;;;21.73;53.66
17209;BME280;8720;48.488;9.202;2023-05-14T10:47:21;96823.38;;;21.78;53.54
17209;BME280;8720;48.488;9.202;2023-05-14T10:49:53;96813.06;;;21.86;52.71
17209;BME280;8720;48.488;9.202;2023-05-14T10:52:21;96820.72;;;21.90;52.71
17209;BME280;8720;48.488;9.202;2023-05-14T10:54:51;96816.53;;;21.99;52.57
17209;BME280;8720;48.488;9.202;2023-05-14T10:57:22;96819.94;;;22.01;52.51
17209;BME280;8720;48.488;9.202;2023-05-14T10:59:53;96814.41;;;22.04;52.22
17209;BME280;8720;48.488;9.202;2023-05-14T11:02:23;96812.06;;;21.99;52.18
17209;BME280;8720;48.488;9.202;2023-05-14T11:05:01;96814.28;;;22.05;52.28
17209;BME280;8720;48.488;9.202;2023-05-14T11:07:31;96805.63;;;22.14;51.60
17209;BME280;8720;48.488;9.202;2023-05-14T11:10:02;96812.94;;;22.23;51.53
17209;BME280;8720;48.488;9.202;2023-05-14T11:12:32;96801.50;;;22.34;51.39
17209;BME280;8720;48.488;9.202;2023-05-14T11:15:02;96799.00;;;22.43;50.44
17209;BME280;8720;48.488;9.202;2023-05-14T11:17:31;96797.91;;;22.46;50.33
17209;BME280;8720;48.488;9.202;2023-05-14T11:19:58;96798.13;;;22.43;50.67
17209;BME280;8720;48.488;9.202;2023-05-14T11:22:26;96793.16;;;22.38;50.17
17209;BME280;8720;48.488;9.202;2023-05-14T11:24:54;96788.78;;;22.37;50.40
17209;BME280;8720;48.488;9.202;2023-05-14T11:27:21;96788.16;;;22.34;50.45
17209;BME280;8720;48.488;9.202;2023-05-14T11:29:51;96786.94;;;22.27;50.41
17209;BME280;8720;48.488;9.202;2023-05-14T11:32:22;96789.06;;;22.22;50.06
17209;BME280;8720;48.488;9.202;2023-05-14T11:34:49;96787.59;;;22.18;50.43
17209;BME280;8720;48.488;9.202;2023-05-14T11:37:16;96794.09;;;22.14;50.27
17209;BME280;8720;48.488;9.202;2023-05-14T11:39:49;96793.72;;;22.07;50.15
17209;BME280;8720;48.488;9.202;2023-05-14T11:42:17;96779.13;;;22.00;50.07
17209;BME280;8720;48.488;9.202;2023-05-14T11:44:46;96783.81;;;21.97;50.35
17209;BME280;8720;48.488;9.202;2023-05-14T11:47:18;96788.31;;;21.96;50.06
17209;BME280;8720;48.488;9.202;2023-05-14T11:49:46;96778.63;;;21.95;50.07
17209;BME280;8720;48.488;9.202;2023-05-14T11:52:15;96775.94;;;21.95;50.44
17209;BME280;8720;48.488;9.202;2023-05-14T11:54:44;96778.41;;;21.98;50.41
17209;BME280;8720;48.488;9.202;2023-05-14T11:57:14;96774.78;;;21.99;50.34
17209;BME280;8720;48.488;9.202;2023-05-14T11:59:42;96774.03;;;21.97;50.65
17209;BME280;8720;48.488;9.202;2023-05-14T12:02:11;96771.25;;;21.99;50.20
17209;BME280;8720;48.488;9.202;2023-05-14T12:04:41;96766.91;;;21.98;50.37
17209;BME280;8720;48.488;9.202;2023-05-14T12:07:11;96762.94;;;22.03;50.54
17209;BME280;8720;48.488;9.202;2023-05-14T12:09:41;96762.13;;;22.14;49.88
17209;BME280;8720;48.488;9.202;2023-05-14T12:12:16;96764.25;;;22.21;49.36
17209;BME280;8720;48.488;9.202;2023-05-14T12:14:44;96766.25;;;22.18;49.00
17209;BME280;8720;48.488;9.202;2023-05-14T12:17:13;96737.03;;;22.05;49.10
17209;BME280;8720;48.488;9.202;2023-05-14T12:19:44;96756.28;;;22.09;48.96
17209;BME280;8720;48.488;9.202;2023-05-14T12:22:17;96744.16;;;22.05;49.41
17209;BME280;8720;48.488;9.202;2023-05-14T12:24:53;96751.94;;;22.08;49.47
17209;BME280;8720;48.488;9.202;2023-05-14T12:27:21;96743.94;;;22.08;49.52
17209;BME280;8720;48.488;9.202;2023-05-14T12:29:50;96740.19;;;22.10;49.03
17209;BME280;8720;48.488;9.202;2023-05-14T12:32:25;96742.63;;;22.13;49.13
17209;BME280;8720;48.488;9.202;2023-05-14T12:34:54;96739.00;;;22.14;49.11
17209;BME280;8720;48.488;9.202;2023-05-14T12:37:21;96728.22;;;22.16;49.21
17209;BME280;8720;48.488;9.202;2023-05-14T12:39:48;96721.47;;;22.23;49.02
17209;BME280;8720;48.488;9.202;2023-05-14T12:42:15;96718.38;;;22.29;49.36
17209;BME280;8720;48.488;9.202;2023-05-14T12:44:43;96713.53;;;22.34;49.40
17209;BME280;8720;48.488;9.202;2023-05-14T12:47:10;96714.75;;;22.41;49.09
17209;BME280;8720;48.488;9.202;2023-05-14T12:49:37;96714.81;;;22.52;49.33
17209;BME280;8720;48.488;9.202;2023-05-14T12:52:06;96706.00;;;22.63;48.49
17209;BME280;8720;48.488;9.202;2023-05-14T12:54:33;96701.19;;;22.68;48.41
17209;BME280;8720;48.488;9.202;2023-05-14T12:57:02;96698.41;;;22.80;48.55
17209;BME280;8720;48.488;9.202;2023-05-14T12:59:30;96699.41;;;22.90;48.76
17209;BME280;8720;48.488;9.202;2023-05-14T13:01:57;96705.47;;;23.03;48.52
17209;BME280;8720;48.488;9.202;2023-05-14T13:04:24;96699.78;;;23.08;48.23
17209;BME280;8720;48.488;9.202;2023-05-14T13:06:52;96696.50;;;23.04;47.90
17209;BME280;8720;48.488;9.202;2023-05-14T13:09:20;96691.25;;;23.03;48.07
17209;BME280;8720;48.488;9.202;2023-05-14T13:11:47;96689.44;;;23.03;48.13
17209;BME280;8720;48.488;9.202;2023-05-14T13:14:15;96682.19;;;23.05;47.46
17209;BME280;8720;48.488;9.202;2023-05-14T13:16:42;96676.84;;;23.05;48.01
17209;BME280;8720;48.488;9.202;2023-05-14T13:19:09;96674.56;;;23.12;47.52